sensor_id;sensor_type;location;lat;lon;timestamp;P1;durP1;ratioP1;P2;durP2;ratioP2
69912;SDS011;57198;52.082;5.108;2022-12-05T00:00:58;36.22;;;20.67;;
69912;SDS011;57198;52.082;5.108;2022-12-05T00:03:25;35.63;;;19.83;;
69912;SDS011;57198;52.082;5.108;2022-12-05T00:05:53;35.08;;;19.60;;
69912;SDS011;57198;52.082;5.108;2022-12-05T00:08:20;34.95;;;19.98;;
69912;SDS011;57198;52.082;5.108;2022-12-05T00:10:47;33.08;;;18.98;;
69912;SDS011;57198;52.082;5.108;2022-12-05T00:13:14;37.35;;;20.08;;
69912;SDS011;57198;52.082;5.108;2022-12-05T00:15:42;35.92;;;18.50;;
69912;SDS011;57198;52.082;5.108;2022-12-05T00:18:09;32.47;;;18.55;;
69912;SDS011;57198;52.082;5.108;2022-12-05T00:20:36;35.85;;;21.10;;
69912;SDS011;57198;52.082;5.108;2022-12-05T00:23:03;35.72;;;20.10;;
69912;SDS011;57198;52.082;5.108;2022-12-05T00:25:31;37.13;;;20.00;;
69912;SDS011;57198;52.082;5.108;2022-12-05T00:27:58;34.33;;;19.98;;
69912;SDS011;57198;52.082;5.108;2022-12-05T00:30:25;38.15;;;21.58;;
69912;SDS011;57198;52.082;5.108;2022-12-05T00:32:53;34.55;;;18.95;;
69912;SDS011;57198;52.082;5.108;2022-12-05T00:35:20;35.75;;;19.33;;
69912;SDS011;57198;52.082;5.108;2022-12-05T00:37:47;35.47;;;19.95;;
69912;SDS011;57198;52.082;5.108;2022-12-05T00:40:14;35.63;;;20.60;;
69912;SDS011;57198;52.082;5.108;2022-12-05T00:42:42;39.38;;;20.90;;
69912;SDS011;57198;52.082;5.108;2022-12-05T00:45:16;34.95;;;20.08;;
69912;SDS011;57198;52.082;5.108;2022-12-05T00:47:43;36.92;;;19.13;;
69912;SDS011;57198;52.082;5.108;2022-12-05T00:50:10;32.77;;;19.23;;
69912;SDS011;57198;52.082;5.108;2022-12-05T00:52:37;31.83;;;18.83;;
69912;SDS011;57198;52.082;5.108;2022-12-05T00:55:05;32.55;;;17.70;;
69912;SDS011;57198;52.082;5.108;2022-12-05T00:57:32;31.55;;;18.30;;
69912;SDS011;57198;52.082;5.108;2022-12-05T00:59:59;35.58;;;20.38;;
69912;SDS011;57198;52.082;5.108;2022-12-05T01:02:27;33.50;;;19.67;;
69912;SDS011;57198;52.082;5.108;2022-12-05T01:04:54;34.08;;;19.30;;
69912;SDS011;57198;52.082;5.108;2022-12-05T01:07:22;34.33;;;18.15;;
69912;SDS011;57198;52.082;5.108;2022-12-05T01:09:50;33.72;;;19.25;;
69912;SDS011;57198;52.082;5.108;2022-12-05T01:12:17;31.50;;;19.05;;
69912;SDS011;57198;52.082;5.108;2022-12-05T01:14:44;32.58;;;19.27;;
69912;SDS011;57198;52.082;5.108;2022-12-05T01:17:11;34.35;;;18.42;;
69912;SDS011;57198;52.082;5.108;2022-12-05T01:19:39;31.35;;;18.60;;
69912;SDS011;57198;52.082;5.108;2022-12-05T01:22:06;34.67;;;18.42;;
69912;SDS011;57198;52.082;5.108;2022-12-05T01:24:33;37.22;;;19.73;;
69912;SDS011;57198;52.082;5.108;2022-12-05T01:27:01;33.83;;;18.92;;
69912;SDS011;57198;52.082;5.108;2022-12-05T01:29:28;33.22;;;18.40;;
69912;SDS011;57198;52.082;5.108;2022-12-05T01:31:56;34.38;;;18.77;;
69912;SDS011;57198;52.082;5.108;2022-12-05T01:34:24;32.20;;;18.20;;
69912;SDS011;57198;52.082;5.108;2022-12-05T01:36:52;39.10;;;19.45;;
69912;SDS011;57198;52.082;5.108;2022-12-05T01:39:19;35.90;;;19.50;;
69912;SDS011;57198;52.082;5.108;2022-12-05T01:41:48;37.55;;;19.98;;
69912;SDS011;57198;52.082;5.108;2022-12-05T01:46:47;34.58;;;18.88;;
69912;SDS011;57198;52.082;5.108;2022-12-05T01:49:26;35.67;;;19.88;;
69912;SDS011;57198;52.082;5.108;2022-12-05T01:51:55;34.92;;;18.65;;
69912;SDS011;57198;52.082;5.108;2022-12-05T01:54:24;34.28;;;19.10;;
69912;SDS011;57198;52.082;5.108;2022-12-05T01:56:53;34.95;;;18.45;;
69912;SDS011;57198;52.082;5.108;2022-12-05T01:59:22;36.25;;;19.27;;
69912;SDS011;57198;52.082;5.108;2022-12-05T02:01:50;34.17;;;19.50;;
69912;SDS011;57198;52.082;5.108;2022-12-05T02:04:17;34.58;;;20.55;;
69912;SDS011;57198;52.082;5.108;2022-12-05T02:06:44;34.67;;;19.85;;
69912;SDS011;57198;52.082;5.108;2022-12-05T02:09:12;35.30;;;20.17;;
69912;SDS011;57198;52.082;5.108;2022-12-05T02:11:58;39.22;;;19.23;;
69912;SDS011;57198;52.082;5.108;2022-12-05T02:17:13;33.72;;;20.67;;
69912;SDS011;57198;52.082;5.108;2022-12-05T02:25:05;35.63;;;19.75;;
69912;SDS011;57198;52.082;5.108;2022-12-05T02:33:20;34.70;;;19.33;;
69912;SDS011;57198;52.082;5.108;2022-12-05T02:40:39;34.42;;;19.42;;
69912;SDS011;57198;52.082;5.108;2022-12-05T02:43:07;30.55;;;18.15;;
69912;SDS011;57198;52.082;5.108;2022-12-05T02:45:39;32.58;;;19.27;;
69912;SDS011;57198;52.082;5.108;2022-12-05T02:48:07;34.20;;;19.52;;
69912;SDS011;57198;52.082;5.108;2022-12-05T02:50:36;32.65;;;19.08;;
69912;SDS011;57198;52.082;5.108;2022-12-05T02:53:06;32.53;;;18.98;;
69912;SDS011;57198;52.082;5.108;2022-12-05T02:55:35;32.28;;;19.30;;
69912;SDS011;57198;52.082;5.108;2022-12-05T02:58:04;33.28;;;19.17;;
69912;SDS011;57198;52.082;5.108;2022-12-05T03:00:33;31.55;;;18.65;;
69912;SDS011;57198;52.082;5.108;2022-12-05T03:03:01;30.73;;;17.80;;
69912;SDS011;57198;52.082;5.108;2022-12-05T03:07:58;32.50;;;19.63;;
69912;SDS011;57198;52.082;5.108;2022-12-05T03:10:29;29.60;;;18.17;;
69912;SDS011;57198;52.082;5.108;2022-12-05T03:12:59;29.08;;;18.20;;
69912;SDS011;57198;52.082;5.108;2022-12-05T03:15:31;31.33;;;18.75;;
69912;SDS011;57198;52.082;5.108;2022-12-05T03:18:12;32.63;;;18.15;;
69912;SDS011;57198;52.082;5.108;2022-12-05T03:20:45;30.67;;;18.52;;
69912;SDS011;57198;52.082;5.108;2022-12-05T03:23:23;32.75;;;17.60;;
69912;SDS011;57198;52.082;5.108;2022-12-05T03:28:23;35.42;;;19.05;;
69912;SDS011;57198;52.082;5.108;2022-12-05T03:30:52;32.50;;;19.35;;
69912;SDS011;57198;52.082;5.108;2022-12-05T03:33:21;30.65;;;17.98;;
69912;SDS011;57198;52.082;5.108;2022-12-05T03:36:01;32.15;;;18.88;;
69912;SDS011;57198;52.082;5.108;2022-12-05T03:38:33;31.70;;;18.58;;
69912;SDS011;57198;52.082;5.108;2022-12-05T03:41:06;30.40;;;19.08;;
69912;SDS011;57198;52.082;5.108;2022-12-05T03:46:33;31.23;;;17.75;;
69912;SDS011;57198;52.082;5.108;2022-12-05T03:49:24;30.23;;;17.42;;
69912;SDS011;57198;52.082;5.108;2022-12-05T03:54:40;32.78;;;19.05;;
69912;SDS011;57198;52.082;5.108;2022-12-05T03:57:12;27.55;;;16.67;;
69912;SDS011;57198;52.082;5.108;2022-12-05T04:02:17;29.83;;;17.77;;
69912;SDS011;57198;52.082;5.108;2022-12-05T04:04:50;29.90;;;16.77;;
69912;SDS011;57198;52.082;5.108;2022-12-05T04:07:19;27.33;;;16.77;;
69912;SDS011;57198;52.082;5.108;2022-12-05T04:09:57;27.20;;;17.05;;
69912;SDS011;57198;52.082;5.108;2022-12-05T04:12:27;29.63;;;17.77;;
69912;SDS011;57198;52.082;5.108;2022-12-05T04:14:56;25.42;;;16.08;;
69912;SDS011;57198;52.082;5.108;2022-12-05T04:17:35;30.35;;;16.65;;
69912;SDS011;57198;52.082;5.108;2022-12-05T04:22:56;28.13;;;16.00;;
69912;SDS011;57198;52.082;5.108;2022-12-05T04:25:24;27.52;;;16.75;;
69912;SDS011;57198;52.082;5.108;2022-12-05T04:30:48;27.77;;;15.93;;
69912;SDS011;57198;52.082;5.108;2022-12-05T04:38:44;27.23;;;17.05;;
69912;SDS011;57198;52.082;5.108;2022-12-05T04:41:21;25.65;;;15.18;;
69912;SDS011;57198;52.082;5.108;2022-12-05T04:43:50;26.92;;;16.33;;
69912;SDS011;57198;52.082;5.108;2022-12-05T04:46:18;25.85;;;15.30;;
69912;SDS011;57198;52.082;5.108;2022-12-05T04:48:48;29.70;;;16.00;;
69912;SDS011;57198;52.082;5.108;2022-12-05T04:51:21;30.17;;;16.67;;
69912;SDS011;57198;52.082;5.108;2022-12-05T04:53:53;29.08;;;16.33;;
69912;SDS011;57198;52.082;5.108;2022-12-05T04:56:20;26.80;;;16.00;;
69912;SDS011;57198;52.082;5.108;2022-12-05T04:58:50;27.52;;;16.13;;
69912;SDS011;57198;52.082;5.108;2022-12-05T05:01:21;24.98;;;15.60;;
69912;SDS011;57198;52.082;5.108;2022-12-05T05:03:56;31.67;;;15.73;;
69912;SDS011;57198;52.082;5.108;2022-12-05T05:06:24;28.02;;;16.27;;
69912;SDS011;57198;52.082;5.108;2022-12-05T05:08:53;30.13;;;16.08;;
69912;SDS011;57198;52.082;5.108;2022-12-05T05:11:22;26.58;;;15.23;;
69912;SDS011;57198;52.082;5.108;2022-12-05T05:13:50;30.25;;;17.20;;
69912;SDS011;57198;52.082;5.108;2022-12-05T05:16:28;26.50;;;16.02;;
69912;SDS011;57198;52.082;5.108;2022-12-05T05:18:55;25.05;;;16.10;;
69912;SDS011;57198;52.082;5.108;2022-12-05T05:21:27;28.88;;;16.17;;
69912;SDS011;57198;52.082;5.108;2022-12-05T05:23:55;28.48;;;16.50;;
69912;SDS011;57198;52.082;5.108;2022-12-05T05:26:23;26.45;;;16.27;;
69912;SDS011;57198;52.082;5.108;2022-12-05T05:28:51;27.33;;;16.55;;
69912;SDS011;57198;52.082;5.108;2022-12-05T05:31:18;30.80;;;16.63;;
69912;SDS011;57198;52.082;5.108;2022-12-05T05:33:50;30.73;;;17.88;;
69912;SDS011;57198;52.082;5.108;2022-12-05T05:36:18;29.85;;;17.35;;
69912;SDS011;57198;52.082;5.108;2022-12-05T05:38:46;24.17;;;15.68;;
69912;SDS011;57198;52.082;5.108;2022-12-05T05:41:24;26.55;;;16.17;;
69912;SDS011;57198;52.082;5.108;2022-12-05T05:43:52;30.85;;;16.58;;
69912;SDS011;57198;52.082;5.108;2022-12-05T05:46:20;27.23;;;16.02;;
69912;SDS011;57198;52.082;5.108;2022-12-05T05:48:48;28.45;;;16.35;;
69912;SDS011;57198;52.082;5.108;2022-12-05T05:51:16;28.55;;;17.02;;
69912;SDS011;57198;52.082;5.108;2022-12-05T05:53:44;29.25;;;17.00;;
69912;SDS011;57198;52.082;5.108;2022-12-05T05:56:12;27.00;;;15.68;;
69912;SDS011;57198;52.082;5.108;2022-12-05T05:58:46;28.17;;;16.77;;
69912;SDS011;57198;52.082;5.108;2022-12-05T06:01:15;28.45;;;16.00;;
69912;SDS011;57198;52.082;5.108;2022-12-05T06:03:43;28.73;;;16.13;;
69912;SDS011;57198;52.082;5.108;2022-12-05T06:06:11;27.75;;;16.48;;
69912;SDS011;57198;52.082;5.108;2022-12-05T06:08:39;27.48;;;16.45;;
69912;SDS011;57198;52.082;5.108;2022-12-05T06:11:08;26.73;;;15.75;;
69912;SDS011;57198;52.082;5.108;2022-12-05T06:13:36;29.05;;;16.48;;
69912;SDS011;57198;52.082;5.108;2022-12-05T06:16:04;25.88;;;15.88;;
69912;SDS011;57198;52.082;5.108;2022-12-05T06:18:32;28.65;;;16.55;;
69912;SDS011;57198;52.082;5.108;2022-12-05T06:20:59;27.65;;;16.35;;
69912;SDS011;57198;52.082;5.108;2022-12-05T06:23:27;31.50;;;17.40;;
69912;SDS011;57198;52.082;5.108;2022-12-05T06:25:54;30.00;;;17.38;;
69912;SDS011;57198;52.082;5.108;2022-12-05T06:28:23;38.15;;;23.05;;
69912;SDS011;57198;52.082;5.108;2022-12-05T06:30:50;30.17;;;16.33;;
69912;SDS011;57198;52.082;5.108;2022-12-05T06:33:19;25.98;;;16.40;;
69912;SDS011;57198;52.082;5.108;2022-12-05T06:35:46;28.98;;;16.70;;
69912;SDS011;57198;52.082;5.108;2022-12-05T06:38:14;26.90;;;15.57;;
69912;SDS011;57198;52.082;5.108;2022-12-05T06:40:41;34.63;;;19.00;;
69912;SDS011;57198;52.082;5.108;2022-12-05T06:43:09;28.63;;;18.00;;
69912;SDS011;57198;52.082;5.108;2022-12-05T06:45:37;51.53;;;27.50;;
69912;SDS011;57198;52.082;5.108;2022-12-05T06:48:05;38.22;;;20.30;;
69912;SDS011;57198;52.082;5.108;2022-12-05T06:50:32;48.25;;;26.15;;
69912;SDS011;57198;52.082;5.108;2022-12-05T06:52:59;46.13;;;27.27;;
69912;SDS011;57198;52.082;5.108;2022-12-05T06:55:27;36.17;;;19.98;;
69912;SDS011;57198;52.082;5.108;2022-12-05T06:57:54;36.33;;;20.15;;
69912;SDS011;57198;52.082;5.108;2022-12-05T07:00:21;40.58;;;20.08;;
69912;SDS011;57198;52.082;5.108;2022-12-05T07:03:09;30.88;;;18.63;;
69912;SDS011;57198;52.082;5.108;2022-12-05T07:05:36;33.35;;;17.77;;
69912;SDS011;57198;52.082;5.108;2022-12-05T07:08:03;34.33;;;19.92;;
69912;SDS011;57198;52.082;5.108;2022-12-05T07:10:31;29.73;;;17.38;;
69912;SDS011;57198;52.082;5.108;2022-12-05T07:12:58;31.67;;;16.92;;
69912;SDS011;57198;52.082;5.108;2022-12-05T07:15:25;32.17;;;19.10;;
69912;SDS011;57198;52.082;5.108;2022-12-05T07:17:53;29.10;;;17.35;;
69912;SDS011;57198;52.082;5.108;2022-12-05T07:20:20;35.22;;;18.25;;
69912;SDS011;57198;52.082;5.108;2022-12-05T07:22:47;28.98;;;17.52;;
69912;SDS011;57198;52.082;5.108;2022-12-05T07:25:14;28.23;;;16.40;;
69912;SDS011;57198;52.082;5.108;2022-12-05T07:27:42;30.33;;;18.08;;
69912;SDS011;57198;52.082;5.108;2022-12-05T07:30:09;31.55;;;15.75;;
69912;SDS011;57198;52.082;5.108;2022-12-05T07:32:36;29.67;;;15.32;;
69912;SDS011;57198;52.082;5.108;2022-12-05T07:35:04;54.67;;;41.40;;
69912;SDS011;57198;52.082;5.108;2022-12-05T07:37:31;35.88;;;24.63;;
69912;SDS011;57198;52.082;5.108;2022-12-05T07:39:58;32.33;;;18.42;;
69912;SDS011;57198;52.082;5.108;2022-12-05T07:42:26;26.02;;;16.25;;
69912;SDS011;57198;52.082;5.108;2022-12-05T07:44:53;25.80;;;14.40;;
69912;SDS011;57198;52.082;5.108;2022-12-05T07:47:21;26.40;;;15.05;;
69912;SDS011;57198;52.082;5.108;2022-12-05T07:49:49;21.05;;;13.85;;
69912;SDS011;57198;52.082;5.108;2022-12-05T07:52:16;22.15;;;13.38;;
69912;SDS011;57198;52.082;5.108;2022-12-05T07:54:44;20.58;;;12.93;;
69912;SDS011;57198;52.082;5.108;2022-12-05T07:57:11;24.13;;;14.68;;
69912;SDS011;57198;52.082;5.108;2022-12-05T07:59:38;21.63;;;12.25;;
69912;SDS011;57198;52.082;5.108;2022-12-05T08:02:07;17.33;;;11.65;;
69912;SDS011;57198;52.082;5.108;2022-12-05T08:04:34;19.48;;;12.90;;
69912;SDS011;57198;52.082;5.108;2022-12-05T08:07:01;19.20;;;12.93;;
69912;SDS011;57198;52.082;5.108;2022-12-05T08:09:29;20.75;;;14.80;;
69912;SDS011;57198;52.082;5.108;2022-12-05T08:11:56;19.50;;;13.23;;
69912;SDS011;57198;52.082;5.108;2022-12-05T08:14:23;17.60;;;12.45;;
69912;SDS011;57198;52.082;5.108;2022-12-05T08:16:51;17.85;;;11.48;;
69912;SDS011;57198;52.082;5.108;2022-12-05T08:19:18;17.90;;;11.63;;
69912;SDS011;57198;52.082;5.108;2022-12-05T08:21:45;19.55;;;13.13;;
69912;SDS011;57198;52.082;5.108;2022-12-05T08:24:13;17.15;;;11.45;;
69912;SDS011;57198;52.082;5.108;2022-12-05T08:26:40;19.88;;;12.38;;
69912;SDS011;57198;52.082;5.108;2022-12-05T08:29:08;18.42;;;11.68;;
69912;SDS011;57198;52.082;5.108;2022-12-05T08:31:43;18.20;;;11.63;;
69912;SDS011;57198;52.082;5.108;2022-12-05T08:34:12;17.88;;;12.10;;
69912;SDS011;57198;52.082;5.108;2022-12-05T08:36:40;16.50;;;11.73;;
69912;SDS011;57198;52.082;5.108;2022-12-05T08:39:09;17.10;;;12.38;;
69912;SDS011;57198;52.082;5.108;2022-12-05T08:41:39;16.20;;;11.65;;
69912;SDS011;57198;52.082;5.108;2022-12-05T08:44:06;19.27;;;12.32;;
69912;SDS011;57198;52.082;5.108;2022-12-05T08:46:36;14.43;;;10.85;;
69912;SDS011;57198;52.082;5.108;2022-12-05T08:49:04;15.85;;;11.98;;
69912;SDS011;57198;52.082;5.108;2022-12-05T08:51:32;17.85;;;12.20;;
69912;SDS011;57198;52.082;5.108;2022-12-05T08:54:03;15.93;;;10.93;;
69912;SDS011;57198;52.082;5.108;2022-12-05T08:56:30;18.05;;;11.65;;
69912;SDS011;57198;52.082;5.108;2022-12-05T08:59:00;14.73;;;10.88;;
69912;SDS011;57198;52.082;5.108;2022-12-05T09:01:31;15.85;;;12.32;;
69912;SDS011;57198;52.082;5.108;2022-12-05T09:03:59;15.95;;;12.35;;
69912;SDS011;57198;52.082;5.108;2022-12-05T09:06:28;18.17;;;11.95;;
69912;SDS011;57198;52.082;5.108;2022-12-05T09:08:56;14.45;;;9.85;;
69912;SDS011;57198;52.082;5.108;2022-12-05T09:11:27;16.35;;;10.63;;
69912;SDS011;57198;52.082;5.108;2022-12-05T09:13:55;13.30;;;9.73;;
69912;SDS011;57198;52.082;5.108;2022-12-05T09:16:24;16.17;;;10.13;;
69912;SDS011;57198;52.082;5.108;2022-12-05T09:18:52;11.90;;;9.13;;
69912;SDS011;57198;52.082;5.108;2022-12-05T09:21:20;13.75;;;9.88;;
69912;SDS011;57198;52.082;5.108;2022-12-05T09:23:48;13.48;;;9.82;;
69912;SDS011;57198;52.082;5.108;2022-12-05T09:26:16;10.80;;;8.80;;
69912;SDS011;57198;52.082;5.108;2022-12-05T09:28:44;10.95;;;8.90;;
69912;SDS011;57198;52.082;5.108;2022-12-05T09:31:13;10.75;;;8.90;;
69912;SDS011;57198;52.082;5.108;2022-12-05T09:33:41;10.75;;;8.48;;
69912;SDS011;57198;52.082;5.108;2022-12-05T09:36:11;10.95;;;8.88;;
69912;SDS011;57198;52.082;5.108;2022-12-05T09:38:39;10.55;;;7.97;;
69912;SDS011;57198;52.082;5.108;2022-12-05T09:44:36;10.73;;;8.40;;
69912;SDS011;57198;52.082;5.108;2022-12-05T09:46:58;9.02;;;7.80;;
69912;SDS011;57198;52.082;5.108;2022-12-05T09:49:27;10.63;;;8.27;;
69912;SDS011;57198;52.082;5.108;2022-12-05T09:51:54;9.85;;;8.85;;
69912;SDS011;57198;52.082;5.108;2022-12-05T09:54:23;9.32;;;8.15;;
69912;SDS011;57198;52.082;5.108;2022-12-05T09:56:50;9.35;;;8.13;;
69912;SDS011;57198;52.082;5.108;2022-12-05T09:59:19;9.85;;;8.30;;
69912;SDS011;57198;52.082;5.108;2022-12-05T10:04:49;10.07;;;8.38;;
69912;SDS011;57198;52.082;5.108;2022-12-05T10:07:28;9.50;;;8.27;;
69912;SDS011;57198;52.082;5.108;2022-12-05T10:15:42;8.82;;;7.93;;
69912;SDS011;57198;52.082;5.108;2022-12-05T10:18:25;9.07;;;7.95;;
69912;SDS011;57198;52.082;5.108;2022-12-05T10:23:47;8.90;;;7.70;;
69912;SDS011;57198;52.082;5.108;2022-12-05T10:26:24;8.25;;;7.45;;
69912;SDS011;57198;52.082;5.108;2022-12-05T10:31:21;7.40;;;6.63;;
69912;SDS011;57198;52.082;5.108;2022-12-05T10:33:52;7.75;;;6.80;;
69912;SDS011;57198;52.082;5.108;2022-12-05T10:36:23;8.02;;;7.22;;
69912;SDS011;57198;52.082;5.108;2022-12-05T10:38:53;11.77;;;8.95;;
69912;SDS011;57198;52.082;5.108;2022-12-05T10:41:22;19.17;;;11.50;;
69912;SDS011;57198;52.082;5.108;2022-12-05T10:43:49;13.07;;;9.98;;
69912;SDS011;57198;52.082;5.108;2022-12-05T10:46:17;57.95;;;25.00;;
69912;SDS011;57198;52.082;5.108;2022-12-05T10:48:44;59.33;;;24.92;;
69912;SDS011;57198;52.082;5.108;2022-12-05T10:51:13;65.78;;;29.23;;
69912;SDS011;57198;52.082;5.108;2022-12-05T10:58:56;14.32;;;8.80;;
69912;SDS011;57198;52.082;5.108;2022-12-05T11:01:26;9.93;;;7.63;;
69912;SDS011;57198;52.082;5.108;2022-12-05T11:04:02;15.32;;;9.65;;
69912;SDS011;57198;52.082;5.108;2022-12-05T11:06:38;26.20;;;13.88;;
69912;SDS011;57198;52.082;5.108;2022-12-05T11:09:34;26.20;;;14.52;;
69912;SDS011;57198;52.082;5.108;2022-12-05T11:12:05;14.75;;;11.15;;
69912;SDS011;57198;52.082;5.108;2022-12-05T11:14:32;9.85;;;8.88;;
69912;SDS011;57198;52.082;5.108;2022-12-05T11:17:03;17.17;;;14.43;;
69912;SDS011;57198;52.082;5.108;2022-12-05T11:19:32;55.58;;;36.13;;
69912;SDS011;57198;52.082;5.108;2022-12-05T11:21:59;53.60;;;34.78;;
69912;SDS011;57198;52.082;5.108;2022-12-05T11:24:31;15.98;;;14.38;;
69912;SDS011;57198;52.082;5.108;2022-12-05T11:27:00;15.00;;;10.50;;
69912;SDS011;57198;52.082;5.108;2022-12-05T11:29:56;12.57;;;11.32;;
69912;SDS011;57198;52.082;5.108;2022-12-05T11:32:28;17.70;;;15.95;;
69912;SDS011;57198;52.082;5.108;2022-12-05T11:37:31;10.18;;;9.18;;
69912;SDS011;57198;52.082;5.108;2022-12-05T11:40:02;10.68;;;9.20;;
69912;SDS011;57198;52.082;5.108;2022-12-05T11:42:42;9.88;;;8.15;;
69912;SDS011;57198;52.082;5.108;2022-12-05T11:45:56;7.07;;;6.38;;
69912;SDS011;57198;52.082;5.108;2022-12-05T11:48:08;6.30;;;5.78;;
69912;SDS011;57198;52.082;5.108;2022-12-05T11:50:58;6.35;;;5.78;;
69912;SDS011;57198;52.082;5.108;2022-12-05T11:56:10;5.78;;;5.15;;
69912;SDS011;57198;52.082;5.108;2022-12-05T12:03:48;6.32;;;5.53;;
69912;SDS011;57198;52.082;5.108;2022-12-05T12:06:26;6.13;;;5.53;;
69912;SDS011;57198;52.082;5.108;2022-12-05T12:11:52;8.00;;;5.85;;
69912;SDS011;57198;52.082;5.108;2022-12-05T12:20:07;8.98;;;5.35;;
69912;SDS011;57198;52.082;5.108;2022-12-05T12:35:49;10.73;;;7.60;;
69912;SDS011;57198;52.082;5.108;2022-12-05T12:40:50;6.93;;;5.22;;
69912;SDS011;57198;52.082;5.108;2022-12-05T12:51:21;8.13;;;6.25;;
69912;SDS011;57198;52.082;5.108;2022-12-05T12:58:59;7.57;;;6.70;;
69912;SDS011;57198;52.082;5.108;2022-12-05T13:01:39;6.60;;;5.13;;
69912;SDS011;57198;52.082;5.108;2022-12-05T13:06:48;6.60;;;5.93;;
69912;SDS011;57198;52.082;5.108;2022-12-05T13:09:20;8.32;;;7.60;;
69912;SDS011;57198;52.082;5.108;2022-12-05T13:11:49;8.00;;;6.13;;
69912;SDS011;57198;52.082;5.108;2022-12-05T13:14:19;8.23;;;4.70;;
69912;SDS011;57198;52.082;5.108;2022-12-05T13:16:50;7.63;;;6.68;;
69912;SDS011;57198;52.082;5.108;2022-12-05T13:19:25;7.22;;;6.15;;
69912;SDS011;57198;52.082;5.108;2022-12-05T13:21:54;9.32;;;7.65;;
69912;SDS011;57198;52.082;5.108;2022-12-05T13:24:24;9.73;;;8.73;;
69912;SDS011;57198;52.082;5.108;2022-12-05T13:26:52;9.68;;;7.60;;
69912;SDS011;57198;52.082;5.108;2022-12-05T13:29:21;8.20;;;7.40;;
69912;SDS011;57198;52.082;5.108;2022-12-05T13:31:50;6.93;;;5.53;;
69912;SDS011;57198;52.082;5.108;2022-12-05T13:36:55;11.88;;;5.30;;
69912;SDS011;57198;52.082;5.108;2022-12-05T13:39:52;9.52;;;5.60;;
69912;SDS011;57198;52.082;5.108;2022-12-05T13:42:39;9.35;;;5.68;;
69912;SDS011;57198;52.082;5.108;2022-12-05T13:45:08;8.52;;;7.13;;
69912;SDS011;57198;52.082;5.108;2022-12-05T13:47:39;18.38;;;12.45;;
69912;SDS011;57198;52.082;5.108;2022-12-05T13:57:43;12.00;;;9.40;;
69912;SDS011;57198;52.082;5.108;2022-12-05T14:07:51;8.55;;;7.15;;
69912;SDS011;57198;52.082;5.108;2022-12-05T14:10:22;6.22;;;5.30;;
69912;SDS011;57198;52.082;5.108;2022-12-05T14:15:43;9.05;;;6.00;;
69912;SDS011;57198;52.082;5.108;2022-12-05T14:18:19;6.93;;;4.80;;
69912;SDS011;57198;52.082;5.108;2022-12-05T14:34:45;5.20;;;4.40;;
69912;SDS011;57198;52.082;5.108;2022-12-05T14:36:58;5.53;;;4.47;;
69912;SDS011;57198;52.082;5.108;2022-12-05T14:42:03;5.63;;;4.40;;
69912;SDS011;57198;52.082;5.108;2022-12-05T14:44:31;5.07;;;4.63;;
69912;SDS011;57198;52.082;5.108;2022-12-05T14:47:00;5.65;;;5.13;;
69912;SDS011;57198;52.082;5.108;2022-12-05T14:49:50;4.63;;;4.22;;
69912;SDS011;57198;52.082;5.108;2022-12-05T14:52:22;5.10;;;4.60;;
69912;SDS011;57198;52.082;5.108;2022-12-05T14:54:51;7.65;;;6.60;;
69912;SDS011;57198;52.082;5.108;2022-12-05T14:57:19;13.80;;;9.35;;
69912;SDS011;57198;52.082;5.108;2022-12-05T14:59:51;10.38;;;7.28;;
69912;SDS011;57198;52.082;5.108;2022-12-05T15:02:42;13.23;;;10.35;;
69912;SDS011;57198;52.082;5.108;2022-12-05T15:07:40;9.05;;;7.57;;
69912;SDS011;57198;52.082;5.108;2022-12-05T15:18:37;15.35;;;13.80;;
69912;SDS011;57198;52.082;5.108;2022-12-05T15:20:56;11.60;;;10.15;;
69912;SDS011;57198;52.082;5.108;2022-12-05T15:26:04;8.05;;;7.25;;
69912;SDS011;57198;52.082;5.108;2022-12-05T15:31:26;8.02;;;6.38;;
69912;SDS011;57198;52.082;5.108;2022-12-05T15:33:55;7.93;;;6.10;;
69912;SDS011;57198;52.082;5.108;2022-12-05T15:36:24;7.00;;;5.95;;
69912;SDS011;57198;52.082;5.108;2022-12-05T15:38:53;7.13;;;5.80;;
69912;SDS011;57198;52.082;5.108;2022-12-05T15:41:20;7.47;;;6.28;;
69912;SDS011;57198;52.082;5.108;2022-12-05T15:43:55;10.63;;;8.18;;
69912;SDS011;57198;52.082;5.108;2022-12-05T15:46:23;9.52;;;7.95;;
69912;SDS011;57198;52.082;5.108;2022-12-05T15:48:53;10.40;;;9.38;;
69912;SDS011;57198;52.082;5.108;2022-12-05T15:51:36;9.52;;;8.18;;
69912;SDS011;57198;52.082;5.108;2022-12-05T15:54:11;7.43;;;6.10;;
69912;SDS011;57198;52.082;5.108;2022-12-05T15:59:17;7.85;;;5.97;;
69912;SDS011;57198;52.082;5.108;2022-12-05T16:01:50;6.28;;;5.68;;
69912;SDS011;57198;52.082;5.108;2022-12-05T16:04:23;7.07;;;6.00;;
69912;SDS011;57198;52.082;5.108;2022-12-05T16:06:55;8.95;;;5.32;;
69912;SDS011;57198;52.082;5.108;2022-12-05T16:09:27;7.82;;;5.75;;
69912;SDS011;57198;52.082;5.108;2022-12-05T16:11:55;9.73;;;6.28;;
69912;SDS011;57198;52.082;5.108;2022-12-05T16:14:24;9.48;;;7.03;;
69912;SDS011;57198;52.082;5.108;2022-12-05T16:17:13;13.90;;;8.02;;
69912;SDS011;57198;52.082;5.108;2022-12-05T16:19:41;9.55;;;5.90;;
69912;SDS011;57198;52.082;5.108;2022-12-05T16:24:40;7.20;;;6.20;;
69912;SDS011;57198;52.082;5.108;2022-12-05T16:27:25;7.20;;;5.53;;
69912;SDS011;57198;52.082;5.108;2022-12-05T16:32:38;9.60;;;6.32;;
69912;SDS011;57198;52.082;5.108;2022-12-05T16:35:27;7.97;;;5.93;;
69912;SDS011;57198;52.082;5.108;2022-12-05T16:38:04;7.00;;;6.30;;
69912;SDS011;57198;52.082;5.108;2022-12-05T16:40:32;9.30;;;6.00;;
69912;SDS011;57198;52.082;5.108;2022-12-05T16:43:03;9.38;;;5.93;;
69912;SDS011;57198;52.082;5.108;2022-12-05T16:45:38;8.90;;;6.38;;
69912;SDS011;57198;52.082;5.108;2022-12-05T16:48:25;8.80;;;6.20;;
69912;SDS011;57198;52.082;5.108;2022-12-05T16:53:40;14.18;;;9.52;;
69912;SDS011;57198;52.082;5.108;2022-12-05T16:56:13;7.55;;;6.38;;
69912;SDS011;57198;52.082;5.108;2022-12-05T16:58:40;8.70;;;6.55;;
69912;SDS011;57198;52.082;5.108;2022-12-05T17:01:18;6.75;;;5.75;;
69912;SDS011;57198;52.082;5.108;2022-12-05T17:03:46;6.63;;;5.47;;
69912;SDS011;57198;52.082;5.108;2022-12-05T17:06:13;8.00;;;4.85;;
69912;SDS011;57198;52.082;5.108;2022-12-05T17:08:41;8.63;;;6.15;;
69912;SDS011;57198;52.082;5.108;2022-12-05T17:11:10;8.60;;;6.30;;
69912;SDS011;57198;52.082;5.108;2022-12-05T17:13:40;7.50;;;4.90;;
69912;SDS011;57198;52.082;5.108;2022-12-05T17:16:07;7.65;;;6.00;;
69912;SDS011;57198;52.082;5.108;2022-12-05T17:18:35;6.78;;;5.18;;
69912;SDS011;57198;52.082;5.108;2022-12-05T17:21:02;9.80;;;6.32;;
69912;SDS011;57198;52.082;5.108;2022-12-05T17:23:29;8.60;;;5.75;;
69912;SDS011;57198;52.082;5.108;2022-12-05T17:25:57;9.00;;;5.10;;
69912;SDS011;57198;52.082;5.108;2022-12-05T17:28:25;6.28;;;5.07;;
69912;SDS011;57198;52.082;5.108;2022-12-05T17:30:52;7.18;;;5.18;;
69912;SDS011;57198;52.082;5.108;2022-12-05T17:33:19;8.02;;;6.13;;
69912;SDS011;57198;52.082;5.108;2022-12-05T17:35:47;8.80;;;6.35;;
69912;SDS011;57198;52.082;5.108;2022-12-05T17:38:14;8.65;;;6.47;;
69912;SDS011;57198;52.082;5.108;2022-12-05T17:40:41;6.43;;;5.82;;
69912;SDS011;57198;52.082;5.108;2022-12-05T17:43:11;6.90;;;4.75;;
69912;SDS011;57198;52.082;5.108;2022-12-05T17:45:42;10.52;;;7.13;;
69912;SDS011;57198;52.082;5.108;2022-12-05T17:48:13;25.35;;;13.70;;
69912;SDS011;57198;52.082;5.108;2022-12-05T17:50:41;14.00;;;9.40;;